Time;durP1;ratioP1;P1;durP2;ratioP2;P2;SDS_P1;SDS_P2;PMS_P1;PMS_P2;Temp;Humidity;BMP_temperature;BMP_pressure;BME280_temperature;BME280_humidity;BME280_pressure;Samples;Min_cycle;Max_cycle;Signal;HPM_P1;HPM_P2
2021/10/26 00:02:11;;;;;;;20.93;16.83;;;;;;;;;;5094302;28;20440;-75
2021/10/26 00:04:38;;;;;;;24.63;18.13;;;;;;;;;;5095029;28;20471;-76
2021/10/26 00:07:07;;;;;;;22.03;18.50;;;;;;;;;;5093772;28;20490;-75
2021/10/26 00:09:34;;;;;;;22.23;17.00;;;;;;;;;;5094294;28;21064;-75
2021/10/26 00:12:02;;;;;;;21.30;16.60;;;;;;;;;;5093230;28;20520;-75
2021/10/26 00:14:29;;;;;;;22.40;18.87;;;;;;;;;;5094092;28;20441;-75
2021/10/26 00:16:56;;;;;;;21.40;15.80;;;;;;;;;;5093929;28;20526;-75
2021/10/26 00:19:24;;;;;;;22.67;16.30;;;;;;;;;;5094357;28;20446;-75
2021/10/26 00:21:52;;;;;;;22.77;17.30;;;;;;;;;;5094007;28;20497;-75
2021/10/26 00:24:20;;;;;;;20.23;17.23;;;;;;;;;;5094275;28;20482;-76
2021/10/26 00:26:48;;;;;;;24.03;18.63;;;;;;;;;;5093601;28;20526;-77
2021/10/26 00:29:15;;;;;;;21.50;17.67;;;;;;;;;;5094288;28;20454;-77
2021/10/26 00:31:42;;;;;;;23.53;17.20;;;;;;;;;;5094637;28;20475;-77
2021/10/26 00:34:10;;;;;;;21.37;17.10;;;;;;;;;;5093791;28;20523;-76
2021/10/26 00:36:37;;;;;;;19.07;16.70;;;;;;;;;;5093577;28;20450;-76
2021/10/26 00:39:06;;;;;;;22.20;18.03;;;;;;;;;;5093562;28;20542;-78
2021/10/26 00:41:34;;;;;;;21.37;17.10;;;;;;;;;;5093837;28;20486;-76
2021/10/26 00:44:02;;;;;;;23.90;18.67;;;;;;;;;;5092277;28;20523;-77
2021/10/26 00:46:30;;;;;;;20.53;17.80;;;;;;;;;;5092590;28;20447;-77
2021/10/26 00:48:57;;;;;;;24.60;17.13;;;;;;;;;;5093962;28;20934;-77
2021/10/26 00:51:25;;;;;;;21.63;15.80;;;;;;;;;;5093409;28;20475;-77
2021/10/26 00:53:52;;;;;;;30.90;18.70;;;;;;;;;;5093998;28;20483;-77
2021/10/26 00:56:20;;;;;;;20.83;16.50;;;;;;;;;;5093433;28;20850;-77
2021/10/26 00:58:49;;;;;;;20.70;17.87;;;;;;;;;;5093619;28;20439;-76
2021/10/26 01:01:16;;;;;;;21.53;17.43;;;;;;;;;;5093654;28;20545;-78
2021/10/26 01:03:43;;;;;;;22.87;18.20;;;;;;;;;;5092157;28;20471;-78
2021/10/26 01:06:11;;;;;;;32.73;20.80;;;;;;;;;;5093226;28;20491;-77
2021/10/26 01:08:38;;;;;;;20.20;16.87;;;;;;;;;;5093632;28;20979;-77
2021/10/26 01:11:06;;;;;;;29.10;18.60;;;;;;;;;;5093618;28;20538;-77
2021/10/26 01:13:34;;;;;;;21.60;17.13;;;;;;;;;;5093591;28;20446;-77
2021/10/26 01:16:04;;;;;;;21.20;17.47;;;;;;;;;;5093354;28;20794;-77
2021/10/26 01:18:31;;;;;;;23.77;17.43;;;;;;;;;;5093360;28;20440;-77
2021/10/26 01:21:00;;;;;;;28.40;18.27;;;;;;;;;;5093271;28;20451;-77
2021/10/26 01:23:28;;;;;;;23.23;18.37;;;;;;;;;;5093163;28;20944;-77
2021/10/26 01:25:55;;;;;;;25.60;19.57;;;;;;;;;;5090577;28;20928;-77
2021/10/26 01:28:23;;;;;;;26.60;18.17;;;;;;;;;;5093044;28;20450;-77
2021/10/26 01:30:50;;;;;;;24.40;19.10;;;;;;;;;;5093415;28;20478;-76
2021/10/26 01:33:18;;;;;;;25.23;18.10;;;;;;;;;;5092954;28;20431;-77
2021/10/26 01:35:45;;;;;;;24.93;18.60;;;;;;;;;;5093276;28;20523;-77
2021/10/26 01:38:13;;;;;;;28.70;19.33;;;;;;;;;;5092929;28;20536;-77
2021/10/26 01:40:41;;;;;;;29.37;21.20;;;;;;;;;;5092729;28;21019;-76
2021/10/26 01:43:08;;;;;;;31.23;20.87;;;;;;;;;;5093525;28;20929;-76
2021/10/26 01:45:35;;;;;;;27.00;21.40;;;;;;;;;;5094750;28;20526;-77
2021/10/26 01:48:02;;;;;;;28.40;21.17;;;;;;;;;;5096719;28;20955;-77
2021/10/26 01:50:30;;;;;;;28.60;22.30;;;;;;;;;;5097492;28;20507;-77
2021/10/26 01:52:57;;;;;;;27.80;23.10;;;;;;;;;;5096515;28;20438;-77
2021/10/26 01:55:26;;;;;;;27.97;22.67;;;;;;;;;;5094942;28;20940;-76
2021/10/26 01:57:53;;;;;;;31.40;21.33;;;;;;;;;;5096780;28;20435;-77
2021/10/26 02:00:21;;;;;;;41.43;23.93;;;;;;;;;;5097050;28;20531;-76
2021/10/26 02:02:49;;;;;;;31.90;24.83;;;;;;;;;;5097197;28;20439;-77
2021/10/26 02:05:17;;;;;;;29.10;23.67;;;;;;;;;;5096650;28;20865;-76
2021/10/26 02:07:44;;;;;;;29.60;24.77;;;;;;;;;;5096590;28;20478;-77
2021/10/26 02:10:12;;;;;;;28.47;23.77;;;;;;;;;;5096857;28;20889;-78
2021/10/26 02:12:41;;;;;;;32.53;22.33;;;;;;;;;;5096952;28;20443;-77
2021/10/26 02:15:09;;;;;;;31.10;23.70;;;;;;;;;;5097056;28;20523;-77
2021/10/26 02:17:36;;;;;;;29.53;22.27;;;;;;;;;;5095799;28;20451;-77
2021/10/26 02:20:04;;;;;;;25.13;19.70;;;;;;;;;;5096665;28;20436;-77
2021/10/26 02:22:31;;;;;;;29.50;21.70;;;;;;;;;;5096067;28;21007;-77
2021/10/26 02:24:58;;;;;;;29.47;21.33;;;;;;;;;;5096173;28;20538;-77
2021/10/26 02:27:26;;;;;;;27.17;21.53;;;;;;;;;;5093720;28;20518;-76
2021/10/26 02:29:54;;;;;;;26.47;20.77;;;;;;;;;;5096237;28;20448;-77
2021/10/26 02:32:22;;;;;;;31.97;22.10;;;;;;;;;;5096298;28;20476;-76
2021/10/26 02:34:49;;;;;;;30.73;21.80;;;;;;;;;;5096561;28;20515;-76
2021/10/26 02:37:16;;;;;;;30.97;23.20;;;;;;;;;;5096224;28;20444;-76
2021/10/26 02:39:43;;;;;;;29.00;22.50;;;;;;;;;;5095936;28;20530;-76
2021/10/26 02:42:10;;;;;;;36.40;23.80;;;;;;;;;;5095860;28;20443;-76
2021/10/26 02:44:38;;;;;;;28.90;21.77;;;;;;;;;;5096111;28;20440;-76
2021/10/26 02:47:06;;;;;;;31.10;23.37;;;;;;;;;;5095855;28;20524;-75
2021/10/26 02:49:34;;;;;;;28.47;21.00;;;;;;;;;;5096074;28;20468;-76
2021/10/26 02:52:01;;;;;;;30.40;23.90;;;;;;;;;;5096285;28;20478;-76
2021/10/26 02:54:28;;;;;;;28.03;21.97;;;;;;;;;;5095666;28;20546;-77
2021/10/26 02:56:55;;;;;;;33.47;21.37;;;;;;;;;;5093355;28;20448;-76
2021/10/26 02:59:24;;;;;;;29.23;19.97;;;;;;;;;;5095469;28;20441;-76
2021/10/26 03:01:51;;;;;;;32.03;22.30;;;;;;;;;;5095850;28;20447;-76
2021/10/26 03:04:20;;;;;;;30.90;21.60;;;;;;;;;;5095407;28;20450;-76
2021/10/26 03:06:47;;;;;;;28.67;21.67;;;;;;;;;;5095404;28;20450;-76
2021/10/26 03:09:14;;;;;;;29.77;21.50;;;;;;;;;;5095633;28;20470;-76
2021/10/26 03:11:42;;;;;;;37.10;24.10;;;;;;;;;;5095219;28;20580;-76
2021/10/26 03:14:09;;;;;;;29.07;20.87;;;;;;;;;;5095418;28;20475;-76
2021/10/26 03:16:36;;;;;;;27.93;21.57;;;;;;;;;;5095213;28;20515;-77
2021/10/26 03:19:05;;;;;;;29.07;22.73;;;;;;;;;;5094778;28;20450;-76
2021/10/26 03:21:34;;;;;;;28.90;21.33;;;;;;;;;;5094962;28;20445;-77
2021/10/26 03:24:02;;;;;;;32.10;20.63;;;;;;;;;;5094919;28;20518;-77
2021/10/26 03:26:29;;;;;;;26.23;19.17;;;;;;;;;;5086893;28;20443;-76
2021/10/26 03:28:57;;;;;;;30.60;21.67;;;;;;;;;;5073957;28;20896;-77
2021/10/26 03:31:24;;;;;;;29.87;22.03;;;;;;;;;;5074887;28;20479;-77
2021/10/26 03:33:53;;;;;;;33.00;22.30;;;;;;;;;;5074527;28;20443;-76
2021/10/26 03:36:20;;;;;;;28.30;21.13;;;;;;;;;;5074366;28;20527;-76
2021/10/26 03:38:50;;;;;;;28.60;22.80;;;;;;;;;;5072910;28;20453;-77
2021/10/26 03:41:18;;;;;;;30.53;21.70;;;;;;;;;;5073043;28;20440;-77
2021/10/26 03:43:45;;;;;;;30.03;20.30;;;;;;;;;;5074829;28;20527;-77
2021/10/26 03:46:14;;;;;;;25.50;20.27;;;;;;;;;;5074701;28;20472;-77
2021/10/26 03:48:42;;;;;;;27.70;18.90;;;;;;;;;;5073940;28;20474;-78
2021/10/26 03:51:09;;;;;;;29.43;23.60;;;;;;;;;;5074940;28;20483;-78
2021/10/26 03:53:36;;;;;;;27.40;20.40;;;;;;;;;;5074159;28;20528;-77
2021/10/26 03:56:05;;;;;;;25.10;20.70;;;;;;;;;;5073774;28;20441;-77
2021/10/26 03:58:34;;;;;;;27.13;20.60;;;;;;;;;;5073739;28;20505;-77
2021/10/26 04:01:01;;;;;;;28.50;21.57;;;;;;;;;;5074176;28;20530;-74
2021/10/26 04:03:29;;;;;;;35.73;22.10;;;;;;;;;;5073909;28;20529;-77
2021/10/26 04:06:02;;;;;;;32.03;19.27;;;;;;;;;;5074039;28;20436;-76
2021/10/26 04:08:33;;;;;;;38.07;21.63;;;;;;;;;;5073161;28;20570;-76
2021/10/26 04:11:03;;;;;;;30.30;20.73;;;;;;;;;;5074326;28;20581;-77
2021/10/26 04:13:32;;;;;;;30.83;20.80;;;;;;;;;;5075006;28;20468;-77
2021/10/26 04:15:59;;;;;;;30.30;21.67;;;;;;;;;;5074075;28;20444;-76
2021/10/26 04:18:28;;;;;;;28.43;21.13;;;;;;;;;;5073527;28;20445;-74
2021/10/26 04:20:55;;;;;;;27.53;21.30;;;;;;;;;;5074283;28;20501;-76
2021/10/26 04:23:22;;;;;;;35.30;19.93;;;;;;;;;;5073400;28;20532;-76
2021/10/26 04:25:49;;;;;;;31.63;22.33;;;;;;;;;;5073705;28;20443;-76
2021/10/26 04:28:17;;;;;;;24.00;21.30;;;;;;;;;;5073651;28;20477;-75
2021/10/26 04:30:45;;;;;;;30.17;22.10;;;;;;;;;;5073748;28;20535;-76
2021/10/26 04:33:13;;;;;;;28.47;19.83;;;;;;;;;;5073874;28;20436;-76
2021/10/26 04:35:40;;;;;;;26.07;21.47;;;;;;;;;;5073633;28;20823;-76
2021/10/26 04:38:08;;;;;;;29.07;21.93;;;;;;;;;;5073604;28;20453;-75
2021/10/26 04:40:35;;;;;;;30.23;20.87;;;;;;;;;;5073778;28;20498;-76
2021/10/26 04:43:03;;;;;;;25.73;19.73;;;;;;;;;;5073129;28;20524;-75
2021/10/26 04:45:31;;;;;;;32.37;20.57;;;;;;;;;;5073514;28;20440;-76
2021/10/26 04:48:00;;;;;;;29.90;19.23;;;;;;;;;;5073177;28;20498;-76
2021/10/26 04:50:30;;;;;;;34.30;20.03;;;;;;;;;;5084971;28;20443;-76
2021/10/26 04:52:57;;;;;;;30.97;21.90;;;;;;;;;;5093911;28;20859;-76
2021/10/26 04:55:25;;;;;;;26.73;20.50;;;;;;;;;;5093516;28;20448;-78
2021/10/26 04:57:52;;;;;;;36.53;22.30;;;;;;;;;;5092923;28;20446;-76
2021/10/26 05:00:19;;;;;;;29.33;21.37;;;;;;;;;;5093502;28;20796;-76
2021/10/26 05:02:46;;;;;;;30.77;21.37;;;;;;;;;;5093626;28;20945;-76
2021/10/26 05:05:16;;;;;;;29.60;21.83;;;;;;;;;;5093629;28;20478;-76
2021/10/26 05:07:45;;;;;;;25.67;20.40;;;;;;;;;;5092943;28;20451;-76
2021/10/26 05:10:12;;;;;;;33.67;20.37;;;;;;;;;;5093666;28;20456;-75
2021/10/26 05:12:40;;;;;;;30.10;20.30;;;;;;;;;;5093672;28;20544;-77
2021/10/26 05:15:07;;;;;;;33.23;21.03;;;;;;;;;;5093683;28;20624;-76
2021/10/26 05:17:36;;;;;;;33.50;20.20;;;;;;;;;;5093038;28;20453;-76
2021/10/26 05:20:05;;;;;;;32.50;21.63;;;;;;;;;;5093531;28;20439;-77
2021/10/26 05:22:35;;;;;;;37.90;21.47;;;;;;;;;;5098041;28;20534;-76
2021/10/26 05:25:04;;;;;;;31.93;20.70;;;;;;;;;;5097239;28;20428;-74
2021/10/26 05:27:36;;;;;;;30.13;21.03;;;;;;;;;;5092372;28;20457;-75
2021/10/26 05:30:04;;;;;;;33.63;23.00;;;;;;;;;;5076800;28;20420;-76
2021/10/26 05:32:31;;;;;;;33.47;20.47;;;;;;;;;;5077142;28;20557;-74
2021/10/26 05:35:00;;;;;;;32.90;22.60;;;;;;;;;;5076758;28;20439;-73
2021/10/26 05:37:28;;;;;;;36.40;19.90;;;;;;;;;;5076827;28;20513;-75
2021/10/26 05:39:59;;;;;;;24.40;19.50;;;;;;;;;;5075524;28;20981;-75
2021/10/26 05:42:28;;;;;;;35.00;21.27;;;;;;;;;;5075329;28;20468;-76
2021/10/26 05:44:55;;;;;;;32.40;22.23;;;;;;;;;;5076874;28;20454;-76
2021/10/26 05:47:23;;;;;;;28.23;20.17;;;;;;;;;;5076909;28;20520;-76
2021/10/26 05:49:50;;;;;;;37.23;20.80;;;;;;;;;;5076800;28;20445;-76
2021/10/26 05:52:17;;;;;;;33.07;20.47;;;;;;;;;;5076771;28;20529;-76
2021/10/26 05:54:45;;;;;;;33.57;19.83;;;;;;;;;;5076446;28;20448;-77
2021/10/26 05:57:13;;;;;;;30.33;19.40;;;;;;;;;;5076578;28;20440;-75
2021/10/26 05:59:40;;;;;;;30.93;20.00;;;;;;;;;;5075379;28;20882;-76
2021/10/26 06:02:08;;;;;;;31.67;19.90;;;;;;;;;;5076841;28;20531;-76
2021/10/26 06:04:35;;;;;;;27.97;19.77;;;;;;;;;;5076315;28;20957;-75
2021/10/26 06:07:02;;;;;;;39.23;20.57;;;;;;;;;;5076217;28;20558;-76
2021/10/26 06:09:32;;;;;;;26.57;17.33;;;;;;;;;;5076078;28;20563;-76
2021/10/26 06:12:01;;;;;;;29.63;19.80;;;;;;;;;;5076633;28;20889;-77
2021/10/26 06:14:30;;;;;;;30.23;20.30;;;;;;;;;;5076384;28;20548;-76
2021/10/26 06:17:00;;;;;;;27.60;17.40;;;;;;;;;;5076198;28;20436;-77
2021/10/26 06:19:27;;;;;;;32.87;20.60;;;;;;;;;;5075775;28;20784;-77
2021/10/26 06:21:54;;;;;;;28.77;19.87;;;;;;;;;;5076295;28;20444;-77
2021/10/26 06:24:21;;;;;;;28.80;20.73;;;;;;;;;;5076454;28;20433;-76
2021/10/26 06:26:48;;;;;;;30.33;20.60;;;;;;;;;;5076417;28;20535;-77
2021/10/26 06:29:16;;;;;;;37.27;21.60;;;;;;;;;;5074065;28;20440;-76
2021/10/26 06:31:45;;;;;;;31.43;19.90;;;;;;;;;;5075197;28;20475;-77
2021/10/26 06:34:12;;;;;;;28.90;20.50;;;;;;;;;;5076391;28;20444;-76
2021/10/26 06:36:39;;;;;;;31.00;20.10;;;;;;;;;;5076002;28;20444;-77
2021/10/26 06:39:07;;;;;;;35.43;20.97;;;;;;;;;;5076141;28;20455;-77
2021/10/26 06:41:34;;;;;;;23.53;18.07;;;;;;;;;;5075713;28;20523;-77
2021/10/26 06:44:02;;;;;;;28.63;19.97;;;;;;;;;;5075337;28;20436;-76
2021/10/26 06:46:29;;;;;;;27.63;20.30;;;;;;;;;;5075777;28;20527;-76
2021/10/26 06:48:58;;;;;;;27.73;19.67;;;;;;;;;;5075955;28;20436;-76
2021/10/26 06:51:25;;;;;;;27.60;19.77;;;;;;;;;;5075814;28;20444;-77
2021/10/26 06:53:52;;;;;;;32.10;19.83;;;;;;;;;;5075746;28;20523;-76
2021/10/26 06:56:20;;;;;;;37.27;19.43;;;;;;;;;;5075445;28;20448;-76
2021/10/26 06:58:48;;;;;;;26.30;19.70;;;;;;;;;;5075087;28;20491;-76
2021/10/26 07:01:15;;;;;;;33.27;20.73;;;;;;;;;;5074002;28;20445;-76
2021/10/26 07:03:42;;;;;;;31.50;19.87;;;;;;;;;;5075399;28;20541;-76
2021/10/26 07:06:11;;;;;;;31.70;18.57;;;;;;;;;;5075519;28;20523;-76
2021/10/26 07:08:39;;;;;;;25.13;17.87;;;;;;;;;;5074919;28;20472;-76
2021/10/26 07:11:06;;;;;;;25.73;19.97;;;;;;;;;;5074847;28;20457;-76
2021/10/26 07:13:38;;;;;;;23.90;18.50;;;;;;;;;;5075055;28;20472;-76
2021/10/26 07:16:06;;;;;;;26.00;18.30;;;;;;;;;;5075265;28;20482;-76
2021/10/26 07:18:33;;;;;;;32.23;21.70;;;;;;;;;;5075271;28;20807;-77
2021/10/26 07:21:00;;;;;;;32.73;20.03;;;;;;;;;;5074657;28;20534;-76
2021/10/26 07:23:29;;;;;;;26.60;18.60;;;;;;;;;;5075458;28;20436;-77
2021/10/26 07:25:57;;;;;;;32.97;19.53;;;;;;;;;;5074837;28;20941;-76
2021/10/26 07:28:24;;;;;;;26.90;19.20;;;;;;;;;;5073935;28;20472;-73
2021/10/26 07:30:51;;;;;;;27.90;18.87;;;;;;;;;;5093941;28;20523;-76
2021/10/26 07:33:21;;;;;;;23.60;18.73;;;;;;;;;;5095178;28;20481;-77
2021/10/26 07:35:51;;;;;;;31.53;18.73;;;;;;;;;;5095208;28;20517;-76
2021/10/26 07:38:27;;;;;;;22.40;17.20;;;;;;;;;;5094850;28;20448;-77
2021/10/26 07:40:56;;;;;;;25.83;18.57;;;;;;;;;;5094743;28;20432;-76
2021/10/26 07:43:23;;;;;;;27.87;18.30;;;;;;;;;;5093693;28;20448;-75
2021/10/26 07:45:51;;;;;;;31.00;19.00;;;;;;;;;;5094630;28;20444;-78
2021/10/26 07:48:18;;;;;;;31.50;17.50;;;;;;;;;;5094742;28;20435;-76
2021/10/26 07:50:46;;;;;;;27.47;17.33;;;;;;;;;;5094752;28;20443;-77
2021/10/26 07:53:13;;;;;;;24.70;16.93;;;;;;;;;;5094725;28;20507;-77
2021/10/26 07:55:40;;;;;;;27.17;17.83;;;;;;;;;;5094711;28;20522;-76
2021/10/26 07:58:09;;;;;;;24.03;17.90;;;;;;;;;;5094291;28;20439;-76
2021/10/26 08:00:36;;;;;;;26.47;17.03;;;;;;;;;;5093037;28;20467;-76
2021/10/26 08:03:04;;;;;;;22.20;15.60;;;;;;;;;;5094507;28;20447;-76
2021/10/26 08:05:32;;;;;;;22.27;15.83;;;;;;;;;;5094252;28;20531;-76
2021/10/26 08:07:59;;;;;;;22.60;16.30;;;;;;;;;;5094229;28;20471;-76
2021/10/26 08:10:26;;;;;;;25.33;16.63;;;;;;;;;;5094425;28;20456;-76
2021/10/26 08:12:54;;;;;;;31.67;16.63;;;;;;;;;;5094689;28;20562;-77
2021/10/26 08:15:22;;;;;;;24.13;16.50;;;;;;;;;;5094324;28;20868;-77
2021/10/26 08:17:50;;;;;;;24.70;16.80;;;;;;;;;;5093837;28;21027;-76
2021/10/26 08:20:17;;;;;;;24.37;16.50;;;;;;;;;;5093839;28;20509;-76
2021/10/26 08:22:45;;;;;;;30.23;17.37;;;;;;;;;;5094378;28;21024;-76
2021/10/26 08:25:18;;;;;;;26.80;15.63;;;;;;;;;;5093588;28;20448;-76
2021/10/26 08:27:46;;;;;;;25.33;16.23;;;;;;;;;;5093953;28;20955;-76
2021/10/26 08:30:15;;;;;;;28.80;16.97;;;;;;;;;;5092587;28;20530;-76
2021/10/26 08:32:52;;;;;;;22.00;15.87;;;;;;;;;;5093039;28;20479;-76
2021/10/26 08:35:24;;;;;;;23.63;16.30;;;;;;;;;;5093735;28;20516;-76
2021/10/26 08:37:53;;;;;;;30.50;17.63;;;;;;;;;;5094054;28;20456;-77
2021/10/26 08:40:20;;;;;;;29.50;18.33;;;;;;;;;;5093680;28;20534;-78
2021/10/26 08:42:48;;;;;;;30.07;19.77;;;;;;;;;;5093424;28;20471;-76
2021/10/26 08:45:16;;;;;;;31.83;17.73;;;;;;;;;;5093496;28;20439;-76
2021/10/26 08:47:45;;;;;;;25.43;18.63;;;;;;;;;;5094068;28;20439;-77
2021/10/26 08:50:12;;;;;;;23.53;15.73;;;;;;;;;;5094038;28;20495;-76
2021/10/26 08:52:39;;;;;;;26.50;17.73;;;;;;;;;;5093494;28;20590;-76
2021/10/26 08:55:08;;;;;;;23.60;15.13;;;;;;;;;;5093499;28;20517;-76
2021/10/26 08:57:35;;;;;;;20.50;14.90;;;;;;;;;;5093632;28;20446;-76
2021/10/26 09:00:06;;;;;;;25.03;15.20;;;;;;;;;;5093549;28;20530;-72
2021/10/26 09:02:35;;;;;;;22.67;13.40;;;;;;;;;;5072958;28;20447;-76
2021/10/26 09:05:10;;;;;;;22.47;16.40;;;;;;;;;;5073598;28;20452;-76
2021/10/26 09:07:38;;;;;;;22.07;13.50;;;;;;;;;;5072917;28;20443;-76
2021/10/26 09:10:12;;;;;;;24.17;15.77;;;;;;;;;;5073408;28;20778;-77
2021/10/26 09:18:11;;;;;;;22.10;13.00;;;;;;;;;;5073512;28;20518;-75
2021/10/26 09:20:49;;;;;;;19.17;11.00;;;;;;;;;;5073288;28;20809;-75
2021/10/26 09:23:18;;;;;;;16.90;11.80;;;;;;;;;;5072871;28;20524;-77
2021/10/26 09:25:46;;;;;;;17.87;13.27;;;;;;;;;;5072872;28;20500;-75
2021/10/26 09:28:15;;;;;;;16.97;14.00;;;;;;;;;;5072871;28;20443;-76
2021/10/26 09:30:43;;;;;;;20.07;13.60;;;;;;;;;;5070775;28;20524;-75
2021/10/26 09:33:10;;;;;;;20.37;11.70;;;;;;;;;;5072170;28;20479;-75
2021/10/26 09:35:38;;;;;;;17.33;11.30;;;;;;;;;;5073104;28;20444;-75
2021/10/26 09:38:07;;;;;;;19.70;11.20;;;;;;;;;;5073110;28;20457;-76
2021/10/26 09:40:42;;;;;;;17.90;12.10;;;;;;;;;;5072506;28;20447;-75
2021/10/26 09:43:10;;;;;;;21.40;11.57;;;;;;;;;;5071885;28;20808;-76
2021/10/26 09:45:37;;;;;;;19.80;12.70;;;;;;;;;;5071781;28;20454;-76
2021/10/26 09:48:09;;;;;;;21.27;11.40;;;;;;;;;;5072785;28;20523;-76
2021/10/26 09:50:37;;;;;;;14.47;11.37;;;;;;;;;;5073652;28;20831;-75
2021/10/26 09:53:06;;;;;;;13.03;9.47;;;;;;;;;;5072764;28;20820;-76
2021/10/26 09:55:38;;;;;;;13.30;10.83;;;;;;;;;;5072688;28;20444;-76
2021/10/26 09:58:08;;;;;;;12.13;10.80;;;;;;;;;;5072685;28;20819;-76
2021/10/26 10:00:38;;;;;;;11.47;8.97;;;;;;;;;;5073156;28;20453;-76
2021/10/26 10:03:06;;;;;;;18.03;10.40;;;;;;;;;;5070919;28;20449;-76
2021/10/26 10:05:34;;;;;;;15.70;10.10;;;;;;;;;;5072854;28;20525;-76
2021/10/26 10:08:17;;;;;;;14.50;11.20;;;;;;;;;;5076037;28;20535;-75
2021/10/26 10:10:46;;;;;;;12.93;11.33;;;;;;;;;;5076275;28;20463;-76
2021/10/26 10:13:13;;;;;;;21.80;14.60;;;;;;;;;;5076378;28;20478;-75
2021/10/26 10:15:43;;;;;;;19.03;12.10;;;;;;;;;;5076634;28;20487;-75
2021/10/26 10:18:10;;;;;;;16.87;10.47;;;;;;;;;;5076212;28;20440;-76
2021/10/26 10:20:37;;;;;;;23.43;11.80;;;;;;;;;;5076058;28;20445;-75
2021/10/26 10:23:04;;;;;;;14.20;10.73;;;;;;;;;;5075831;28;20938;-75
2021/10/26 10:25:33;;;;;;;16.63;11.00;;;;;;;;;;5075897;28;20450;-76
2021/10/26 10:28:02;;;;;;;19.73;12.93;;;;;;;;;;5076123;28;20476;-75
2021/10/26 10:30:30;;;;;;;16.90;12.40;;;;;;;;;;5076421;28;20432;-77
2021/10/26 10:32:57;;;;;;;16.63;11.97;;;;;;;;;;5073928;28;21076;-76
2021/10/26 10:35:28;;;;;;;23.43;13.90;;;;;;;;;;5075506;28;20444;-76
2021/10/26 10:37:56;;;;;;;13.90;10.80;;;;;;;;;;5076516;28;20848;-75
2021/10/26 10:40:27;;;;;;;21.07;13.00;;;;;;;;;;5075726;28;20451;-76
2021/10/26 10:42:57;;;;;;;18.27;13.27;;;;;;;;;;5075897;28;20413;-77
2021/10/26 10:45:30;;;;;;;19.27;13.50;;;;;;;;;;5075326;28;20445;-76
2021/10/26 10:47:58;;;;;;;20.97;13.90;;;;;;;;;;5075798;28;20505;-76
2021/10/26 10:50:27;;;;;;;23.20;15.03;;;;;;;;;;5075515;28;20451;-75
2021/10/26 10:53:08;;;;;;;30.03;16.00;;;;;;;;;;5075456;28;20446;-75
2021/10/26 10:55:36;;;;;;;18.80;16.20;;;;;;;;;;5075342;28;20437;-77
2021/10/26 10:58:18;;;;;;;20.63;14.77;;;;;;;;;;5075297;28;20443;-76
2021/10/26 11:00:47;;;;;;;22.70;16.43;;;;;;;;;;5072079;28;20541;-76
2021/10/26 11:03:29;;;;;;;21.80;15.77;;;;;;;;;;5073444;28;20452;-76
2021/10/26 11:05:56;;;;;;;22.47;17.03;;;;;;;;;;5075032;28;20422;-76
2021/10/26 11:08:38;;;;;;;26.90;15.87;;;;;;;;;;5075418;28;20564;-75
2021/10/26 11:11:06;;;;;;;15.77;13.50;;;;;;;;;;5074790;28;20480;-75
2021/10/26 11:13:35;;;;;;;16.70;13.53;;;;;;;;;;5075556;28;20472;-75
2021/10/26 11:16:05;;;;;;;20.40;13.60;;;;;;;;;;5075482;28;20533;-76
2021/10/26 11:18:53;;;;;;;16.27;13.10;;;;;;;;;;5074928;28;20426;-76
2021/10/26 11:21:35;;;;;;;18.17;13.53;;;;;;;;;;5067803;28;20453;-75
2021/10/26 11:24:07;;;;;;;16.90;12.97;;;;;;;;;;5074834;28;20783;-75
2021/10/26 11:29:38;;;;;;;15.60;12.80;;;;;;;;;;5075226;28;20372;-77
2021/10/26 11:41:19;;;;;;;18.57;14.03;;;;;;;;;;5317297;22;20497;-75
2021/10/26 11:43:47;;;;;;;16.80;13.13;;;;;;;;;;5014097;28;20532;-74
2021/10/26 11:46:14;;;;;;;20.10;14.37;;;;;;;;;;5014313;28;20467;-73
2021/10/26 11:48:49;;;;;;;15.47;13.80;;;;;;;;;;5015056;28;20446;-76
2021/10/26 11:51:17;;;;;;;17.23;13.63;;;;;;;;;;5014455;28;20444;-76
2021/10/26 11:53:45;;;;;;;16.73;13.00;;;;;;;;;;5013903;28;21008;-76
2021/10/26 11:56:23;;;;;;;17.17;13.10;;;;;;;;;;5015154;28;20448;-77
2021/10/26 11:58:58;;;;;;;18.53;13.60;;;;;;;;;;5014802;28;20452;-77
2021/10/26 12:01:35;;;;;;;19.97;12.90;;;;;;;;;;5014930;28;20444;-76
2021/10/26 12:04:04;;;;;;;20.27;14.20;;;;;;;;;;5014025;28;20527;-74
2021/10/26 12:06:32;;;;;;;17.63;13.57;;;;;;;;;;5014230;28;20950;-75
2021/10/26 12:09:01;;;;;;;15.70;13.70;;;;;;;;;;5013750;28;20463;-75
2021/10/26 12:11:31;;;;;;;14.93;12.57;;;;;;;;;;5014418;28;20459;-76
2021/10/26 12:14:18;;;;;;;15.30;13.30;;;;;;;;;;5012558;28;20477;-75
2021/10/26 12:17:05;;;;;;;20.63;13.10;;;;;;;;;;5014561;28;20426;-75
2021/10/26 12:19:36;;;;;;;16.87;11.60;;;;;;;;;;5015277;28;20565;-74
2021/10/26 12:22:03;;;;;;;17.00;11.90;;;;;;;;;;5013722;28;20476;-75
2021/10/26 12:24:32;;;;;;;15.10;12.10;;;;;;;;;;5013786;28;20531;-74
2021/10/26 12:27:03;;;;;;;18.20;13.20;;;;;;;;;;5014351;28;20433;-74
2021/10/26 12:29:31;;;;;;;15.07;12.97;;;;;;;;;;5013901;28;20487;-75
2021/10/26 12:31:58;;;;;;;15.47;12.50;;;;;;;;;;5014303;28;20495;-75
2021/10/26 12:34:25;;;;;;;16.17;12.07;;;;;;;;;;5013145;28;20519;-74
2021/10/26 12:36:53;;;;;;;17.20;12.27;;;;;;;;;;5014135;28;20455;-74
2021/10/26 12:39:28;;;;;;;14.93;12.03;;;;;;;;;;5013965;28;20473;-74
2021/10/26 12:41:56;;;;;;;17.63;11.93;;;;;;;;;;5013123;28;20485;-76
2021/10/26 12:44:28;;;;;;;17.20;12.47;;;;;;;;;;5011697;28;20428;-75
2021/10/26 12:47:05;;;;;;;16.80;11.90;;;;;;;;;;5013410;28;20435;-75
2021/10/26 12:49:37;;;;;;;12.30;10.23;;;;;;;;;;5014230;28;20436;-75
2021/10/26 12:52:15;;;;;;;13.37;11.27;;;;;;;;;;5013727;28;20914;-75
2021/10/26 12:54:44;;;;;;;16.50;10.57;;;;;;;;;;5013058;28;20467;-75
2021/10/26 12:57:13;;;;;;;18.80;10.33;;;;;;;;;;5013747;28;20437;-75
2021/10/26 12:59:42;;;;;;;11.90;10.00;;;;;;;;;;5013793;28;20452;-75
2021/10/26 13:02:10;;;;;;;21.33;11.00;;;;;;;;;;5013815;28;20472;-76
2021/10/26 13:04:39;;;;;;;17.37;12.00;;;;;;;;;;5012746;28;20450;-75
2021/10/26 13:07:07;;;;;;;12.90;9.80;;;;;;;;;;5012307;28;20453;-75
2021/10/26 13:09:36;;;;;;;11.60;10.57;;;;;;;;;;5013130;28;20464;-75
2021/10/26 13:12:05;;;;;;;15.60;11.37;;;;;;;;;;5013435;28;20450;-75
2021/10/26 13:14:41;;;;;;;14.70;12.50;;;;;;;;;;5028568;28;20481;-74
2021/10/26 13:17:39;;;;;;;15.47;12.90;;;;;;;;;;5033703;28;20453;-76
2021/10/26 13:20:15;;;;;;;13.80;12.17;;;;;;;;;;4972349;28;20427;-75
2021/10/26 13:22:52;;;;;;;19.63;11.53;;;;;;;;;;5022449;28;20451;-75
2021/10/26 13:25:19;;;;;;;17.17;11.87;;;;;;;;;;5033042;28;20437;-76
2021/10/26 13:27:46;;;;;;;13.97;11.83;;;;;;;;;;5033237;28;20451;-74
2021/10/26 13:30:14;;;;;;;12.87;10.00;;;;;;;;;;5033016;28;20935;-73
2021/10/26 13:32:41;;;;;;;10.70;8.70;;;;;;;;;;5032910;28;20539;-72
2021/10/26 13:35:09;;;;;;;10.53;8.23;;;;;;;;;;5032350;28;20571;-73
2021/10/26 13:37:37;;;;;;;9.07;7.87;;;;;;;;;;5033536;28;20448;-74
2021/10/26 13:40:05;;;;;;;10.97;8.20;;;;;;;;;;5033453;28;20451;-73
2021/10/26 13:42:32;;;;;;;11.50;8.00;;;;;;;;;;5035745;28;20480;-73
2021/10/26 13:45:02;;;;;;;11.50;7.50;;;;;;;;;;5034991;28;20573;-73
2021/10/26 13:47:29;;;;;;;9.00;7.03;;;;;;;;;;5036540;28;20446;-73
2021/10/26 13:49:57;;;;;;;9.20;7.23;;;;;;;;;;5037000;28;21000;-73
2021/10/26 13:52:25;;;;;;;18.73;7.47;;;;;;;;;;5036888;28;20798;-73
2021/10/26 13:54:53;;;;;;;8.77;7.30;;;;;;;;;;5036345;28;20989;-73
2021/10/26 13:57:21;;;;;;;11.10;7.70;;;;;;;;;;5037392;28;20444;-73
2021/10/26 13:59:48;;;;;;;8.60;6.70;;;;;;;;;;5036189;28;20479;-73
2021/10/26 14:02:15;;;;;;;16.97;6.50;;;;;;;;;;5036435;28;20530;-73
2021/10/26 14:04:42;;;;;;;6.80;5.73;;;;;;;;;;5036313;28;20543;-73
2021/10/26 14:07:10;;;;;;;11.87;6.03;;;;;;;;;;5036748;28;20888;-73
2021/10/26 14:09:37;;;;;;;7.13;5.97;;;;;;;;;;5036674;28;20450;-73
2021/10/26 14:12:06;;;;;;;9.10;6.13;;;;;;;;;;5036719;28;20478;-73
2021/10/26 14:14:33;;;;;;;9.47;5.57;;;;;;;;;;5034303;28;20566;-74
2021/10/26 14:17:00;;;;;;;5.90;4.80;;;;;;;;;;5035915;28;20926;-73
2021/10/26 14:19:28;;;;;;;12.50;6.90;;;;;;;;;;5037020;28;20523;-73
2021/10/26 14:21:55;;;;;;;6.80;5.10;;;;;;;;;;5036188;28;20444;-73
2021/10/26 14:24:24;;;;;;;7.87;4.90;;;;;;;;;;5035539;28;20487;-74
2021/10/26 14:26:52;;;;;;;9.07;5.67;;;;;;;;;;5035887;28;20932;-73
2021/10/26 14:29:20;;;;;;;5.10;4.50;;;;;;;;;;5036130;28;20532;-73
2021/10/26 14:31:48;;;;;;;6.63;4.40;;;;;;;;;;5035645;28;20442;-73
2021/10/26 14:34:19;;;;;;;8.73;4.80;;;;;;;;;;5035816;28;21007;-73
2021/10/26 14:36:58;;;;;;;8.23;5.03;;;;;;;;;;5035350;28;20428;-73
2021/10/26 14:39:39;;;;;;;10.30;5.40;;;;;;;;;;5035865;28;20460;-73
2021/10/26 14:56:14;;;;;;;7.67;5.07;;;;;;;;;;5090992;28;20549;-74
2021/10/26 14:58:43;;;;;;;11.80;5.37;;;;;;;;;;5090881;28;20440;-73
2021/10/26 15:01:10;;;;;;;8.33;5.30;;;;;;;;;;5090308;28;20490;-74